sensor_id;sensor_type;location;lat;lon;timestamp;P1;durP1;ratioP1;P2;durP2;ratioP2
36213;SDS011;37652;50.400;30.628;2023-03-12T00:00:43;8.55;;;7.30;;
36213;SDS011;37652;50.400;30.628;2023-03-12T00:02:44;9.20;;;8.23;;
36213;SDS011;37652;50.400;30.628;2023-03-12T00:04:45;10.90;;;7.63;;
36213;SDS011;37652;50.400;30.628;2023-03-12T00:06:46;9.57;;;7.22;;
36213;SDS011;37652;50.400;30.628;2023-03-12T00:08:47;9.07;;;7.97;;
36213;SDS011;37652;50.400;30.628;2023-03-12T00:10:48;8.60;;;7.70;;
36213;SDS011;37652;50.400;30.628;2023-03-12T00:12:49;11.23;;;9.13;;
36213;SDS011;37652;50.400;30.628;2023-03-12T00:14:49;8.15;;;7.35;;
36213;SDS011;37652;50.400;30.628;2023-03-12T00:16:50;10.05;;;8.40;;
36213;SDS011;37652;50.400;30.628;2023-03-12T00:18:51;9.05;;;7.78;;
36213;SDS011;37652;50.400;30.628;2023-03-12T00:20:53;9.77;;;7.88;;
36213;SDS011;37652;50.400;30.628;2023-03-12T00:22:54;9.27;;;7.65;;
36213;SDS011;37652;50.400;30.628;2023-03-12T00:24:55;8.93;;;7.68;;
36213;SDS011;37652;50.400;30.628;2023-03-12T00:26:56;9.68;;;8.35;;
36213;SDS011;37652;50.400;30.628;2023-03-12T00:28:57;9.20;;;8.30;;
36213;SDS011;37652;50.400;30.628;2023-03-12T00:30:58;12.20;;;7.40;;
36213;SDS011;37652;50.400;30.628;2023-03-12T00:32:58;9.13;;;7.97;;
36213;SDS011;37652;50.400;30.628;2023-03-12T00:34:59;10.77;;;8.82;;
36213;SDS011;37652;50.400;30.628;2023-03-12T00:37:00;11.70;;;9.35;;
36213;SDS011;37652;50.400;30.628;2023-03-12T00:39:01;10.68;;;8.90;;
36213;SDS011;37652;50.400;30.628;2023-03-12T00:41:01;12.20;;;9.73;;
36213;SDS011;37652;50.400;30.628;2023-03-12T00:43:02;11.68;;;8.02;;
36213;SDS011;37652;50.400;30.628;2023-03-12T00:45:03;11.25;;;8.80;;
36213;SDS011;37652;50.400;30.628;2023-03-12T00:47:04;12.10;;;9.52;;
36213;SDS011;37652;50.400;30.628;2023-03-12T00:49:05;12.07;;;9.13;;
36213;SDS011;37652;50.400;30.628;2023-03-12T00:51:06;10.60;;;8.20;;
36213;SDS011;37652;50.400;30.628;2023-03-12T00:53:08;11.88;;;8.45;;
36213;SDS011;37652;50.400;30.628;2023-03-12T00:55:08;12.77;;;9.60;;
36213;SDS011;37652;50.400;30.628;2023-03-12T00:57:09;10.65;;;8.20;;
36213;SDS011;37652;50.400;30.628;2023-03-12T00:59:10;10.73;;;7.97;;
36213;SDS011;37652;50.400;30.628;2023-03-12T01:01:10;12.45;;;8.60;;
36213;SDS011;37652;50.400;30.628;2023-03-12T01:03:11;10.35;;;8.05;;
36213;SDS011;37652;50.400;30.628;2023-03-12T01:05:12;8.77;;;7.72;;
36213;SDS011;37652;50.400;30.628;2023-03-12T01:07:13;9.13;;;8.13;;
36213;SDS011;37652;50.400;30.628;2023-03-12T01:09:13;9.52;;;7.97;;
36213;SDS011;37652;50.400;30.628;2023-03-12T01:11:15;8.77;;;7.78;;
36213;SDS011;37652;50.400;30.628;2023-03-12T01:13:18;11.32;;;8.50;;
36213;SDS011;37652;50.400;30.628;2023-03-12T01:15:19;9.32;;;8.15;;
36213;SDS011;37652;50.400;30.628;2023-03-12T01:17:19;11.52;;;8.23;;
36213;SDS011;37652;50.400;30.628;2023-03-12T01:19:20;9.05;;;7.20;;
36213;SDS011;37652;50.400;30.628;2023-03-12T01:21:21;12.30;;;7.82;;
36213;SDS011;37652;50.400;30.628;2023-03-12T01:23:22;8.55;;;6.45;;
36213;SDS011;37652;50.400;30.628;2023-03-12T01:25:22;7.35;;;6.20;;
36213;SDS011;37652;50.400;30.628;2023-03-12T01:27:23;6.55;;;5.80;;
36213;SDS011;37652;50.400;30.628;2023-03-12T01:29:24;5.22;;;4.60;;
36213;SDS011;37652;50.400;30.628;2023-03-12T01:31:25;5.57;;;4.15;;
36213;SDS011;37652;50.400;30.628;2023-03-12T01:33:25;4.75;;;4.18;;
36213;SDS011;37652;50.400;30.628;2023-03-12T01:35:26;4.88;;;3.30;;
36213;SDS011;37652;50.400;30.628;2023-03-12T01:37:27;2.60;;;2.40;;
36213;SDS011;37652;50.400;30.628;2023-03-12T01:39:28;2.45;;;1.92;;
36213;SDS011;37652;50.400;30.628;2023-03-12T01:41:29;2.03;;;1.75;;
36213;SDS011;37652;50.400;30.628;2023-03-12T01:43:35;1.30;;;1.20;;
36213;SDS011;37652;50.400;30.628;2023-03-12T01:47:56;1.85;;;1.33;;
36213;SDS011;37652;50.400;30.628;2023-03-12T01:49:56;1.30;;;1.20;;
36213;SDS011;37652;50.400;30.628;2023-03-12T01:54:39;1.85;;;1.52;;
36213;SDS011;37652;50.400;30.628;2023-03-12T01:56:46;1.58;;;1.40;;
36213;SDS011;37652;50.400;30.628;2023-03-12T01:58:49;1.70;;;1.58;;
36213;SDS011;37652;50.400;30.628;2023-03-12T02:00:53;1.77;;;1.63;;
36213;SDS011;37652;50.400;30.628;2023-03-12T02:02:55;2.30;;;1.80;;
36213;SDS011;37652;50.400;30.628;2023-03-12T02:05:04;1.70;;;1.60;;
36213;SDS011;37652;50.400;30.628;2023-03-12T02:07:26;1.65;;;1.55;;
36213;SDS011;37652;50.400;30.628;2023-03-12T02:09:27;1.25;;;1.15;;
36213;SDS011;37652;50.400;30.628;2023-03-12T02:11:28;0.90;;;0.90;;
36213;SDS011;37652;50.400;30.628;2023-03-12T02:13:29;1.25;;;1.15;;
36213;SDS011;37652;50.400;30.628;2023-03-12T02:15:30;1.00;;;1.00;;
36213;SDS011;37652;50.400;30.628;2023-03-12T02:17:32;0.90;;;0.80;;
36213;SDS011;37652;50.400;30.628;2023-03-12T02:21:54;0.70;;;0.70;;
36213;SDS011;37652;50.400;30.628;2023-03-12T02:26:05;0.45;;;0.45;;
36213;SDS011;37652;50.400;30.628;2023-03-12T02:28:08;0.85;;;0.70;;
36213;SDS011;37652;50.400;30.628;2023-03-12T02:30:12;0.57;;;0.55;;
36213;SDS011;37652;50.400;30.628;2023-03-12T02:32:17;0.55;;;0.55;;
36213;SDS011;37652;50.400;30.628;2023-03-12T02:34:23;0.85;;;0.63;;
36213;SDS011;37652;50.400;30.628;2023-03-12T02:36:24;0.75;;;0.75;;
36213;SDS011;37652;50.400;30.628;2023-03-12T02:40:41;0.82;;;0.70;;
36213;SDS011;37652;50.400;30.628;2023-03-12T02:42:44;0.60;;;0.60;;
36213;SDS011;37652;50.400;30.628;2023-03-12T02:44:45;0.68;;;0.68;;
36213;SDS011;37652;50.400;30.628;2023-03-12T02:46:47;0.85;;;0.55;;
36213;SDS011;37652;50.400;30.628;2023-03-12T02:48:50;0.40;;;0.40;;
36213;SDS011;37652;50.400;30.628;2023-03-12T02:50:51;0.95;;;0.70;;
36213;SDS011;37652;50.400;30.628;2023-03-12T02:52:52;3.65;;;0.85;;
36213;SDS011;37652;50.400;30.628;2023-03-12T02:54:53;1.27;;;0.60;;
36213;SDS011;37652;50.400;30.628;2023-03-12T02:56:53;0.63;;;0.60;;
36213;SDS011;37652;50.400;30.628;2023-03-12T02:58:54;0.82;;;0.70;;
36213;SDS011;37652;50.400;30.628;2023-03-12T03:00:55;0.75;;;0.75;;
36213;SDS011;37652;50.400;30.628;2023-03-12T03:02:57;1.88;;;0.70;;
36213;SDS011;37652;50.400;30.628;2023-03-12T03:05:00;0.95;;;0.70;;
36213;SDS011;37652;50.400;30.628;2023-03-12T03:07:01;1.45;;;0.90;;
36213;SDS011;37652;50.400;30.628;2023-03-12T03:09:02;1.05;;;0.95;;
36213;SDS011;37652;50.400;30.628;2023-03-12T03:11:03;1.55;;;1.45;;
36213;SDS011;37652;50.400;30.628;2023-03-12T03:13:05;0.93;;;0.85;;
36213;SDS011;37652;50.400;30.628;2023-03-12T03:15:07;0.80;;;0.80;;
36213;SDS011;37652;50.400;30.628;2023-03-12T03:19:09;1.10;;;1.00;;
36213;SDS011;37652;50.400;30.628;2023-03-12T03:21:10;1.25;;;1.13;;
36213;SDS011;37652;50.400;30.628;2023-03-12T03:23:15;2.85;;;1.77;;
36213;SDS011;37652;50.400;30.628;2023-03-12T03:25:16;1.83;;;1.73;;
36213;SDS011;37652;50.400;30.628;2023-03-12T03:27:17;1.88;;;1.77;;
36213;SDS011;37652;50.400;30.628;2023-03-12T03:29:18;1.92;;;1.50;;
36213;SDS011;37652;50.400;30.628;2023-03-12T03:31:19;2.13;;;1.92;;
36213;SDS011;37652;50.400;30.628;2023-03-12T03:33:20;1.58;;;1.48;;
36213;SDS011;37652;50.400;30.628;2023-03-12T03:35:21;1.95;;;1.77;;
36213;SDS011;37652;50.400;30.628;2023-03-12T03:37:23;2.75;;;1.90;;
36213;SDS011;37652;50.400;30.628;2023-03-12T03:39:23;1.95;;;1.75;;
36213;SDS011;37652;50.400;30.628;2023-03-12T03:41:24;2.28;;;2.08;;
36213;SDS011;37652;50.400;30.628;2023-03-12T03:43:25;2.63;;;2.00;;
36213;SDS011;37652;50.400;30.628;2023-03-12T03:45:26;2.40;;;2.20;;
36213;SDS011;37652;50.400;30.628;2023-03-12T03:47:27;2.15;;;2.00;;
36213;SDS011;37652;50.400;30.628;2023-03-12T03:49:28;2.55;;;2.08;;
36213;SDS011;37652;50.400;30.628;2023-03-12T03:51:29;3.30;;;2.30;;
36213;SDS011;37652;50.400;30.628;2023-03-12T03:53:29;1.45;;;1.35;;
36213;SDS011;37652;50.400;30.628;2023-03-12T03:55:30;2.58;;;2.38;;
36213;SDS011;37652;50.400;30.628;2023-03-12T03:57:34;2.05;;;1.90;;
36213;SDS011;37652;50.400;30.628;2023-03-12T03:59:35;1.92;;;1.80;;
36213;SDS011;37652;50.400;30.628;2023-03-12T04:01:36;2.90;;;2.45;;
36213;SDS011;37652;50.400;30.628;2023-03-12T04:03:36;2.03;;;1.83;;
36213;SDS011;37652;50.400;30.628;2023-03-12T04:05:37;1.80;;;1.67;;
36213;SDS011;37652;50.400;30.628;2023-03-12T04:07:38;1.75;;;1.63;;
36213;SDS011;37652;50.400;30.628;2023-03-12T04:09:38;4.60;;;1.88;;
36213;SDS011;37652;50.400;30.628;2023-03-12T04:11:39;2.30;;;2.10;;
36213;SDS011;37652;50.400;30.628;2023-03-12T04:13:40;2.35;;;2.15;;
36213;SDS011;37652;50.400;30.628;2023-03-12T04:15:45;2.13;;;1.92;;
36213;SDS011;37652;50.400;30.628;2023-03-12T04:17:47;2.67;;;2.15;;
36213;SDS011;37652;50.400;30.628;2023-03-12T04:19:48;4.65;;;2.42;;
36213;SDS011;37652;50.400;30.628;2023-03-12T04:21:48;3.78;;;3.30;;
36213;SDS011;37652;50.400;30.628;2023-03-12T04:23:49;3.20;;;2.90;;
36213;SDS011;37652;50.400;30.628;2023-03-12T04:25:50;3.35;;;2.72;;
36213;SDS011;37652;50.400;30.628;2023-03-12T04:27:50;3.17;;;2.65;;
36213;SDS011;37652;50.400;30.628;2023-03-12T04:29:51;3.58;;;2.63;;
36213;SDS011;37652;50.400;30.628;2023-03-12T04:31:52;3.25;;;2.72;;
36213;SDS011;37652;50.400;30.628;2023-03-12T04:33:52;3.30;;;3.00;;
36213;SDS011;37652;50.400;30.628;2023-03-12T04:35:53;3.17;;;2.88;;
36213;SDS011;37652;50.400;30.628;2023-03-12T04:37:54;5.03;;;3.13;;
36213;SDS011;37652;50.400;30.628;2023-03-12T04:39:55;3.83;;;3.10;;
36213;SDS011;37652;50.400;30.628;2023-03-12T04:41:55;5.15;;;3.42;;
36213;SDS011;37652;50.400;30.628;2023-03-12T04:43:56;6.70;;;3.40;;
36213;SDS011;37652;50.400;30.628;2023-03-12T04:45:57;4.20;;;2.97;;
36213;SDS011;37652;50.400;30.628;2023-03-12T04:47:58;3.95;;;3.60;;
36213;SDS011;37652;50.400;30.628;2023-03-12T04:49:59;4.20;;;3.80;;
36213;SDS011;37652;50.400;30.628;2023-03-12T04:51:59;5.05;;;3.53;;
36213;SDS011;37652;50.400;30.628;2023-03-12T04:54:00;4.38;;;3.60;;
36213;SDS011;37652;50.400;30.628;2023-03-12T04:56:01;6.00;;;4.25;;
36213;SDS011;37652;50.400;30.628;2023-03-12T04:58:02;4.75;;;3.65;;
36213;SDS011;37652;50.400;30.628;2023-03-12T05:00:03;6.35;;;3.92;;
36213;SDS011;37652;50.400;30.628;2023-03-12T05:02:09;5.15;;;4.32;;
36213;SDS011;37652;50.400;30.628;2023-03-12T05:04:10;5.30;;;4.20;;
36213;SDS011;37652;50.400;30.628;2023-03-12T05:06:10;6.40;;;4.28;;
36213;SDS011;37652;50.400;30.628;2023-03-12T05:08:11;4.35;;;3.95;;
36213;SDS011;37652;50.400;30.628;2023-03-12T05:10:12;5.15;;;4.65;;
36213;SDS011;37652;50.400;30.628;2023-03-12T05:12:12;5.35;;;4.60;;
36213;SDS011;37652;50.400;30.628;2023-03-12T05:14:13;5.90;;;4.60;;
36213;SDS011;37652;50.400;30.628;2023-03-12T05:16:14;5.30;;;4.80;;
36213;SDS011;37652;50.400;30.628;2023-03-12T05:20:16;4.33;;;3.93;;
36213;SDS011;37652;50.400;30.628;2023-03-12T05:22:17;6.13;;;3.60;;
36213;SDS011;37652;50.400;30.628;2023-03-12T05:24:17;4.78;;;4.22;;
36213;SDS011;37652;50.400;30.628;2023-03-12T05:26:22;4.25;;;3.85;;
36213;SDS011;37652;50.400;30.628;2023-03-12T05:28:24;6.45;;;4.03;;
36213;SDS011;37652;50.400;30.628;2023-03-12T05:30:27;4.75;;;4.28;;
36213;SDS011;37652;50.400;30.628;2023-03-12T05:32:27;5.57;;;3.80;;
36213;SDS011;37652;50.400;30.628;2023-03-12T05:34:28;4.07;;;3.78;;
36213;SDS011;37652;50.400;30.628;2023-03-12T05:36:30;5.63;;;5.03;;
36213;SDS011;37652;50.400;30.628;2023-03-12T05:38:30;4.00;;;3.60;;
36213;SDS011;37652;50.400;30.628;2023-03-12T05:40:31;4.50;;;4.10;;
36213;SDS011;37652;50.400;30.628;2023-03-12T05:42:32;3.78;;;3.47;;
36213;SDS011;37652;50.400;30.628;2023-03-12T05:44:32;4.15;;;3.70;;
36213;SDS011;37652;50.400;30.628;2023-03-12T05:46:34;5.93;;;3.90;;
36213;SDS011;37652;50.400;30.628;2023-03-12T05:48:35;4.38;;;3.80;;
36213;SDS011;37652;50.400;30.628;2023-03-12T05:50:35;5.30;;;4.00;;
36213;SDS011;37652;50.400;30.628;2023-03-12T05:52:36;4.38;;;3.97;;
36213;SDS011;37652;50.400;30.628;2023-03-12T05:54:37;4.45;;;4.05;;
36213;SDS011;37652;50.400;30.628;2023-03-12T05:56:38;4.47;;;3.85;;
36213;SDS011;37652;50.400;30.628;2023-03-12T05:58:39;6.10;;;4.10;;
36213;SDS011;37652;50.400;30.628;2023-03-12T06:00:40;5.10;;;4.13;;
36213;SDS011;37652;50.400;30.628;2023-03-12T06:02:43;4.75;;;4.07;;
36213;SDS011;37652;50.400;30.628;2023-03-12T06:04:43;4.43;;;4.03;;
36213;SDS011;37652;50.400;30.628;2023-03-12T06:06:44;3.78;;;3.30;;
36213;SDS011;37652;50.400;30.628;2023-03-12T06:08:45;5.07;;;3.85;;
36213;SDS011;37652;50.400;30.628;2023-03-12T06:10:48;4.57;;;3.78;;
36213;SDS011;37652;50.400;30.628;2023-03-12T06:12:50;4.50;;;3.97;;
36213;SDS011;37652;50.400;30.628;2023-03-12T06:14:51;3.70;;;2.88;;
36213;SDS011;37652;50.400;30.628;2023-03-12T06:16:51;3.80;;;3.38;;
36213;SDS011;37652;50.400;30.628;2023-03-12T06:18:53;3.80;;;3.10;;
36213;SDS011;37652;50.400;30.628;2023-03-12T06:21:08;4.20;;;3.80;;
36213;SDS011;37652;50.400;30.628;2023-03-12T06:23:19;3.40;;;2.78;;
36213;SDS011;37652;50.400;30.628;2023-03-12T06:25:20;4.15;;;3.75;;
36213;SDS011;37652;50.400;30.628;2023-03-12T06:27:20;5.47;;;3.33;;
36213;SDS011;37652;50.400;30.628;2023-03-12T06:29:21;5.13;;;3.53;;
36213;SDS011;37652;50.400;30.628;2023-03-12T06:31:22;3.55;;;3.15;;
36213;SDS011;37652;50.400;30.628;2023-03-12T06:33:23;4.63;;;3.47;;
36213;SDS011;37652;50.400;30.628;2023-03-12T06:35:24;2.78;;;2.58;;
36213;SDS011;37652;50.400;30.628;2023-03-12T06:37:25;3.53;;;2.95;;
36213;SDS011;37652;50.400;30.628;2023-03-12T06:39:26;3.20;;;2.60;;
36213;SDS011;37652;50.400;30.628;2023-03-12T06:41:28;3.00;;;2.80;;
36213;SDS011;37652;50.400;30.628;2023-03-12T06:43:30;4.10;;;2.88;;
36213;SDS011;37652;50.400;30.628;2023-03-12T06:45:31;4.60;;;2.40;;
36213;SDS011;37652;50.400;30.628;2023-03-12T06:47:32;2.92;;;2.60;;
36213;SDS011;37652;50.400;30.628;2023-03-12T06:49:33;3.40;;;2.38;;
36213;SDS011;37652;50.400;30.628;2023-03-12T06:51:35;5.80;;;4.53;;
36213;SDS011;37652;50.400;30.628;2023-03-12T06:53:36;3.63;;;3.03;;
36213;SDS011;37652;50.400;30.628;2023-03-12T06:55:37;3.60;;;2.75;;
36213;SDS011;37652;50.400;30.628;2023-03-12T06:57:38;3.70;;;2.88;;
36213;SDS011;37652;50.400;30.628;2023-03-12T06:59:39;2.67;;;2.47;;
36213;SDS011;37652;50.400;30.628;2023-03-12T07:01:39;2.70;;;2.45;;
36213;SDS011;37652;50.400;30.628;2023-03-12T07:03:40;2.17;;;1.98;;
36213;SDS011;37652;50.400;30.628;2023-03-12T07:05:44;2.55;;;2.35;;
36213;SDS011;37652;50.400;30.628;2023-03-12T07:07:46;4.63;;;2.15;;
36213;SDS011;37652;50.400;30.628;2023-03-12T07:09:47;3.42;;;2.40;;
36213;SDS011;37652;50.400;30.628;2023-03-12T07:11:48;9.48;;;1.80;;
36213;SDS011;37652;50.400;30.628;2023-03-12T07:13:48;2.55;;;1.90;;
36213;SDS011;37652;50.400;30.628;2023-03-12T07:15:50;1.80;;;1.70;;
36213;SDS011;37652;50.400;30.628;2023-03-12T07:17:51;5.43;;;2.08;;
36213;SDS011;37652;50.400;30.628;2023-03-12T07:19:51;2.33;;;2.13;;
36213;SDS011;37652;50.400;30.628;2023-03-12T07:21:52;4.88;;;1.67;;
36213;SDS011;37652;50.400;30.628;2023-03-12T07:23:53;2.22;;;1.67;;
36213;SDS011;37652;50.400;30.628;2023-03-12T07:25:53;3.15;;;1.90;;
36213;SDS011;37652;50.400;30.628;2023-03-12T07:27:54;2.45;;;1.95;;
36213;SDS011;37652;50.400;30.628;2023-03-12T07:29:55;1.85;;;1.70;;
36213;SDS011;37652;50.400;30.628;2023-03-12T07:31:55;2.10;;;1.73;;
36213;SDS011;37652;50.400;30.628;2023-03-12T07:33:56;2.30;;;1.77;;
36213;SDS011;37652;50.400;30.628;2023-03-12T07:35:57;3.60;;;2.13;;
36213;SDS011;37652;50.400;30.628;2023-03-12T07:39:59;2.57;;;1.67;;
36213;SDS011;37652;50.400;30.628;2023-03-12T07:42:00;2.45;;;2.10;;
36213;SDS011;37652;50.400;30.628;2023-03-12T07:44:01;1.52;;;1.42;;
36213;SDS011;37652;50.400;30.628;2023-03-12T07:46:01;1.85;;;1.75;;
36213;SDS011;37652;50.400;30.628;2023-03-12T07:48:02;1.63;;;1.40;;
36213;SDS011;37652;50.400;30.628;2023-03-12T07:50:03;1.70;;;1.58;;
36213;SDS011;37652;50.400;30.628;2023-03-12T07:52:04;4.28;;;2.25;;
36213;SDS011;37652;50.400;30.628;2023-03-12T07:54:08;2.63;;;1.50;;
36213;SDS011;37652;50.400;30.628;2023-03-12T07:56:09;1.88;;;1.77;;
36213;SDS011;37652;50.400;30.628;2023-03-12T07:58:10;1.70;;;1.40;;
36213;SDS011;37652;50.400;30.628;2023-03-12T08:02:12;5.70;;;1.73;;
36213;SDS011;37652;50.400;30.628;2023-03-12T08:04:13;1.80;;;1.35;;
36213;SDS011;37652;50.400;30.628;2023-03-12T08:06:14;2.13;;;1.60;;
36213;SDS011;37652;50.400;30.628;2023-03-12T08:08:14;2.05;;;1.63;;
36213;SDS011;37652;50.400;30.628;2023-03-12T08:10:16;2.03;;;1.40;;
36213;SDS011;37652;50.400;30.628;2023-03-12T08:12:17;4.95;;;1.60;;
36213;SDS011;37652;50.400;30.628;2023-03-12T08:14:18;3.17;;;1.80;;
36213;SDS011;37652;50.400;30.628;2023-03-12T08:16:18;5.85;;;1.70;;
36213;SDS011;37652;50.400;30.628;2023-03-12T08:18:19;2.60;;;1.60;;
36213;SDS011;37652;50.400;30.628;2023-03-12T08:22:21;1.40;;;1.30;;
36213;SDS011;37652;50.400;30.628;2023-03-12T08:24:22;2.33;;;1.50;;
36213;SDS011;37652;50.400;30.628;2023-03-12T08:26:23;1.92;;;1.63;;
36213;SDS011;37652;50.400;30.628;2023-03-12T08:28:24;2.65;;;1.48;;
36213;SDS011;37652;50.400;30.628;2023-03-12T08:30:25;2.85;;;1.48;;
36213;SDS011;37652;50.400;30.628;2023-03-12T08:32:25;1.80;;;1.38;;
36213;SDS011;37652;50.400;30.628;2023-03-12T08:34:26;3.72;;;1.50;;
36213;SDS011;37652;50.400;30.628;2023-03-12T08:36:27;1.80;;;1.70;;
36213;SDS011;37652;50.400;30.628;2023-03-12T08:38:28;1.38;;;1.27;;
36213;SDS011;37652;50.400;30.628;2023-03-12T08:40:28;3.13;;;1.48;;
36213;SDS011;37652;50.400;30.628;2023-03-12T08:42:29;3.15;;;1.73;;
36213;SDS011;37652;50.400;30.628;2023-03-12T08:44:30;4.78;;;1.77;;
36213;SDS011;37652;50.400;30.628;2023-03-12T08:46:30;2.92;;;1.60;;
36213;SDS011;37652;50.400;30.628;2023-03-12T08:48:32;3.55;;;1.88;;
36213;SDS011;37652;50.400;30.628;2023-03-12T08:50:33;1.77;;;1.40;;
36213;SDS011;37652;50.400;30.628;2023-03-12T08:52:33;3.92;;;1.80;;
36213;SDS011;37652;50.400;30.628;2023-03-12T08:54:34;5.50;;;1.25;;
36213;SDS011;37652;50.400;30.628;2023-03-12T08:56:35;3.03;;;1.50;;
36213;SDS011;37652;50.400;30.628;2023-03-12T08:58:42;3.03;;;1.35;;
36213;SDS011;37652;50.400;30.628;2023-03-12T09:00:42;1.02;;;0.88;;
36213;SDS011;37652;50.400;30.628;2023-03-12T09:02:43;1.92;;;1.13;;
36213;SDS011;37652;50.400;30.628;2023-03-12T09:04:48;1.48;;;1.20;;
36213;SDS011;37652;50.400;30.628;2023-03-12T09:06:49;3.13;;;1.00;;
36213;SDS011;37652;50.400;30.628;2023-03-12T09:08:49;2.25;;;1.58;;
36213;SDS011;37652;50.400;30.628;2023-03-12T09:10:50;2.83;;;1.30;;
36213;SDS011;37652;50.400;30.628;2023-03-12T09:12:51;2.40;;;1.27;;
36213;SDS011;37652;50.400;30.628;2023-03-12T09:14:52;2.70;;;1.38;;
36213;SDS011;37652;50.400;30.628;2023-03-12T09:16:52;3.25;;;1.30;;
36213;SDS011;37652;50.400;30.628;2023-03-12T09:18:53;2.97;;;1.20;;
36213;SDS011;37652;50.400;30.628;2023-03-12T09:20:54;2.58;;;1.33;;
36213;SDS011;37652;50.400;30.628;2023-03-12T09:24:56;1.73;;;1.00;;
36213;SDS011;37652;50.400;30.628;2023-03-12T09:26:57;1.67;;;1.30;;
36213;SDS011;37652;50.400;30.628;2023-03-12T09:28:57;2.72;;;1.20;;
36213;SDS011;37652;50.400;30.628;2023-03-12T09:31:00;3.45;;;1.55;;
36213;SDS011;37652;50.400;30.628;2023-03-12T09:33:01;2.42;;;1.40;;
36213;SDS011;37652;50.400;30.628;2023-03-12T09:35:02;7.45;;;3.30;;
36213;SDS011;37652;50.400;30.628;2023-03-12T09:37:04;2.95;;;2.13;;
36213;SDS011;37652;50.400;30.628;2023-03-12T09:39:04;2.08;;;1.58;;
36213;SDS011;37652;50.400;30.628;2023-03-12T09:41:10;2.65;;;1.20;;
36213;SDS011;37652;50.400;30.628;2023-03-12T09:45:40;3.70;;;1.05;;
36213;SDS011;37652;50.400;30.628;2023-03-12T09:47:46;3.30;;;2.20;;
36213;SDS011;37652;50.400;30.628;2023-03-12T09:50:03;2.40;;;1.50;;
36213;SDS011;37652;50.400;30.628;2023-03-12T09:52:23;1.30;;;0.88;;
36213;SDS011;37652;50.400;30.628;2023-03-12T09:54:33;1.58;;;1.42;;
36213;SDS011;37652;50.400;30.628;2023-03-12T09:56:40;4.35;;;1.30;;
36213;SDS011;37652;50.400;30.628;2023-03-12T10:00:47;3.65;;;1.50;;
36213;SDS011;37652;50.400;30.628;2023-03-12T10:03:01;2.53;;;1.30;;
36213;SDS011;37652;50.400;30.628;2023-03-12T10:11:30;3.95;;;1.23;;
36213;SDS011;37652;50.400;30.628;2023-03-12T10:16:12;2.38;;;1.90;;
36213;SDS011;37652;50.400;30.628;2023-03-12T10:18:52;4.68;;;2.38;;
36213;SDS011;37652;50.400;30.628;2023-03-12T10:28:22;3.35;;;1.58;;
36213;SDS011;37652;50.400;30.628;2023-03-12T10:30:42;2.80;;;1.77;;
36213;SDS011;37652;50.400;30.628;2023-03-12T10:33:00;2.42;;;1.65;;
36213;SDS011;37652;50.400;30.628;2023-03-12T10:35:12;3.17;;;1.70;;
36213;SDS011;37652;50.400;30.628;2023-03-12T10:39:21;3.67;;;2.15;;
36213;SDS011;37652;50.400;30.628;2023-03-12T10:41:24;2.35;;;1.23;;
36213;SDS011;37652;50.400;30.628;2023-03-12T10:43:28;5.15;;;2.15;;
36213;SDS011;37652;50.400;30.628;2023-03-12T10:45:42;3.15;;;1.98;;
36213;SDS011;37652;50.400;30.628;2023-03-12T10:47:49;2.47;;;1.70;;
36213;SDS011;37652;50.400;30.628;2023-03-12T10:54:20;4.05;;;2.80;;
36213;SDS011;37652;50.400;30.628;2023-03-12T10:56:26;1.77;;;1.60;;
36213;SDS011;37652;50.400;30.628;2023-03-12T10:58:30;3.15;;;1.45;;
36213;SDS011;37652;50.400;30.628;2023-03-12T11:00:32;2.85;;;1.80;;
36213;SDS011;37652;50.400;30.628;2023-03-12T11:02:34;3.22;;;1.77;;
36213;SDS011;37652;50.400;30.628;2023-03-12T11:04:43;4.88;;;1.40;;
36213;SDS011;37652;50.400;30.628;2023-03-12T11:09:17;2.55;;;1.50;;
36213;SDS011;37652;50.400;30.628;2023-03-12T11:11:23;2.60;;;1.50;;
36213;SDS011;37652;50.400;30.628;2023-03-12T11:13:32;4.22;;;1.50;;
36213;SDS011;37652;50.400;30.628;2023-03-12T11:15:42;2.25;;;1.65;;
36213;SDS011;37652;50.400;30.628;2023-03-12T11:17:43;1.98;;;1.67;;
36213;SDS011;37652;50.400;30.628;2023-03-12T11:19:43;2.40;;;1.48;;
36213;SDS011;37652;50.400;30.628;2023-03-12T11:21:53;1.85;;;1.60;;
36213;SDS011;37652;50.400;30.628;2023-03-12T11:24:06;4.00;;;1.60;;
36213;SDS011;37652;50.400;30.628;2023-03-12T11:26:22;3.58;;;1.67;;
36213;SDS011;37652;50.400;30.628;2023-03-12T11:28:38;2.42;;;1.80;;
36213;SDS011;37652;50.400;30.628;2023-03-12T11:30:41;2.50;;;1.83;;
36213;SDS011;37652;50.400;30.628;2023-03-12T11:32:44;3.60;;;1.48;;
36213;SDS011;37652;50.400;30.628;2023-03-12T11:34:47;3.47;;;2.40;;
36213;SDS011;37652;50.400;30.628;2023-03-12T11:45:38;2.00;;;1.80;;
36213;SDS011;37652;50.400;30.628;2023-03-12T11:50:14;2.58;;;1.55;;
36213;SDS011;37652;50.400;30.628;2023-03-12T11:52:44;3.33;;;1.50;;
36213;SDS011;37652;50.400;30.628;2023-03-12T11:55:01;2.20;;;1.67;;
36213;SDS011;37652;50.400;30.628;2023-03-12T12:08:56;2.33;;;1.40;;
36213;SDS011;37652;50.400;30.628;2023-03-12T12:13:29;2.47;;;1.58;;
36213;SDS011;37652;50.400;30.628;2023-03-12T12:20:31;3.22;;;1.65;;
36213;SDS011;37652;50.400;30.628;2023-03-12T12:28:24;2.00;;;1.50;;
36213;SDS011;37652;50.400;30.628;2023-03-12T12:30:34;2.95;;;1.85;;
36213;SDS011;37652;50.400;30.628;2023-03-12T12:35:04;2.67;;;1.80;;
36213;SDS011;37652;50.400;30.628;2023-03-12T12:37:42;2.25;;;1.60;;
36213;SDS011;37652;50.400;30.628;2023-03-12T12:42:29;2.78;;;1.88;;
36213;SDS011;37652;50.400;30.628;2023-03-12T12:44:42;5.00;;;1.77;;
36213;SDS011;37652;50.400;30.628;2023-03-12T12:46:51;4.90;;;1.90;;
36213;SDS011;37652;50.400;30.628;2023-03-12T12:49:00;2.50;;;1.73;;
36213;SDS011;37652;50.400;30.628;2023-03-12T12:51:20;6.60;;;1.90;;
36213;SDS011;37652;50.400;30.628;2023-03-12T12:53:39;2.00;;;1.42;;
36213;SDS011;37652;50.400;30.628;2023-03-12T12:57:56;4.30;;;1.75;;
36213;SDS011;37652;50.400;30.628;2023-03-12T13:02:14;2.28;;;1.60;;
36213;SDS011;37652;50.400;30.628;2023-03-12T13:06:50;2.67;;;2.20;;
36213;SDS011;37652;50.400;30.628;2023-03-12T13:10:57;3.58;;;2.30;;
36213;SDS011;37652;50.400;30.628;2023-03-12T13:12:59;3.47;;;2.10;;
36213;SDS011;37652;50.400;30.628;2023-03-12T13:24:30;3.17;;;2.08;;
36213;SDS011;37652;50.400;30.628;2023-03-12T13:26:41;4.85;;;3.20;;
36213;SDS011;37652;50.400;30.628;2023-03-12T13:30:53;4.80;;;2.78;;
36213;SDS011;37652;50.400;30.628;2023-03-12T13:34:57;7.20;;;3.03;;
36213;SDS011;37652;50.400;30.628;2023-03-12T13:36:59;4.32;;;3.42;;
36213;SDS011;37652;50.400;30.628;2023-03-12T13:41:07;5.72;;;3.28;;
36213;SDS011;37652;50.400;30.628;2023-03-12T13:43:15;4.10;;;3.20;;
36213;SDS011;37652;50.400;30.628;2023-03-12T13:47:36;5.73;;;3.67;;
36213;SDS011;37652;50.400;30.628;2023-03-12T13:49:45;5.00;;;3.53;;
36213;SDS011;37652;50.400;30.628;2023-03-12T13:52:09;4.78;;;3.40;;
36213;SDS011;37652;50.400;30.628;2023-03-12T13:54:17;4.55;;;3.70;;
36213;SDS011;37652;50.400;30.628;2023-03-12T13:56:19;6.65;;;3.97;;
36213;SDS011;37652;50.400;30.628;2023-03-12T13:58:29;7.45;;;4.45;;
36213;SDS011;37652;50.400;30.628;2023-03-12T14:00:42;4.80;;;4.13;;
36213;SDS011;37652;50.400;30.628;2023-03-12T14:02:48;6.22;;;4.95;;
36213;SDS011;37652;50.400;30.628;2023-03-12T14:04:53;6.65;;;4.25;;
36213;SDS011;37652;50.400;30.628;2023-03-12T14:16:26;7.03;;;4.38;;
36213;SDS011;37652;50.400;30.628;2023-03-12T14:18:33;5.57;;;4.85;;
36213;SDS011;37652;50.400;30.628;2023-03-12T14:20:37;7.53;;;4.65;;